Time;durP1;ratioP1;P1;durP2;ratioP2;P2;SDS_P1;SDS_P2;PMS_P1;PMS_P2;Temp;Humidity;BMP_temperature;BMP_pressure;BME280_temperature;BME280_humidity;BME280_pressure;Samples;Min_cycle;Max_cycle;Signal;HPM_P1;HPM_P2
2023/02/04 00:02:27;;;;;;;8.18;5.85;;;8.90;99.90;;;;;;6202770;28;20043;-78
2023/02/04 00:05:28;;;;;;;7.22;5.47;;;8.90;99.90;;;;;;6203998;28;20058;-79
2023/02/04 00:08:31;;;;;;;7.82;6.47;;;8.90;99.90;;;;;;6203495;28;20050;-79
2023/02/04 00:11:33;;;;;;;8.63;5.85;;;8.90;99.90;;;;;;6203646;28;20057;-78
2023/02/04 00:14:34;;;;;;;7.63;5.82;;;8.90;99.90;;;;;;6202475;28;20050;-79
2023/02/04 00:17:53;;;;;;;8.38;6.25;;;8.90;99.90;;;;;;6201544;28;20043;-80
2023/02/04 00:20:55;;;;;;;9.82;6.63;;;8.90;99.90;;;;;;6184136;28;20061;-79
2023/02/04 00:23:58;;;;;;;9.88;6.53;;;8.90;99.90;;;;;;6182891;28;20050;-79
2023/02/04 00:27:00;;;;;;;6.55;5.07;;;8.90;99.90;;;;;;6183836;28;20065;-79
2023/02/04 00:30:02;;;;;;;6.30;5.65;;;8.90;99.90;;;;;;6183993;28;20201;-79
2023/02/04 00:33:04;;;;;;;7.35;6.15;;;8.90;99.90;;;;;;6182195;28;20051;-79
2023/02/04 00:36:06;;;;;;;16.25;6.72;;;8.90;99.90;;;;;;6181928;28;20047;-79
2023/02/04 00:39:09;;;;;;;6.32;4.95;;;8.90;99.90;;;;;;6181745;28;20053;-79
2023/02/04 00:42:11;;;;;;;6.25;5.38;;;8.90;99.90;;;;;;6183098;28;20061;-79
2023/02/04 00:45:13;;;;;;;5.38;4.78;;;8.90;99.90;;;;;;6183838;28;20062;-79
2023/02/04 00:48:15;;;;;;;9.52;5.32;;;8.80;99.90;;;;;;6181757;28;20051;-79
2023/02/04 00:51:16;;;;;;;6.55;5.88;;;8.70;99.90;;;;;;6213390;28;20058;-79
2023/02/04 00:54:19;;;;;;;14.30;5.30;;;8.70;99.90;;;;;;6230747;28;20053;-79
2023/02/04 00:57:21;;;;;;;8.93;6.35;;;8.60;99.90;;;;;;6244095;28;20057;-80
2023/02/04 01:00:23;;;;;;;7.80;5.72;;;8.60;99.90;;;;;;6243500;28;20050;-79
2023/02/04 01:03:25;;;;;;;7.75;5.05;;;8.50;99.90;;;;;;6238400;28;20046;-79
2023/02/04 01:06:26;;;;;;;6.68;5.07;;;8.50;99.90;;;;;;6216091;28;20054;-79
2023/02/04 01:09:29;;;;;;;7.20;4.97;;;8.40;99.90;;;;;;6216695;28;20047;-78
2023/02/04 01:12:31;;;;;;;6.53;5.57;;;8.30;99.90;;;;;;6216568;28;20058;-79
2023/02/04 01:15:33;;;;;;;7.38;5.57;;;8.30;99.90;;;;;;6216840;28;20054;-79
2023/02/04 01:18:35;;;;;;;8.07;5.05;;;8.30;99.90;;;;;;6217907;28;20061;-79
2023/02/04 01:21:36;;;;;;;8.75;6.88;;;8.20;99.90;;;;;;6219372;28;20050;-79
2023/02/04 01:24:39;;;;;;;9.10;6.40;;;8.20;99.90;;;;;;6219381;28;20505;-79
2023/02/04 01:27:41;;;;;;;9.57;7.15;;;8.10;99.90;;;;;;6218587;28;20054;-79
2023/02/04 01:30:45;;;;;;;11.25;7.00;;;8.10;99.90;;;;;;6224574;28;20046;-78
2023/02/04 01:33:47;;;;;;;11.18;7.75;;;8.10;99.90;;;;;;6213184;28;20069;-78
2023/02/04 01:36:51;;;;;;;11.45;7.03;;;8.10;99.90;;;;;;6209009;28;20109;-80
2023/02/04 01:39:55;;;;;;;13.05;8.85;;;8.10;99.90;;;;;;6208646;28;20116;-79
2023/02/04 01:42:57;;;;;;;7.80;5.97;;;8.20;99.90;;;;;;6207665;28;20104;-79
2023/02/04 01:46:02;;;;;;;12.07;6.97;;;8.10;99.90;;;;;;6209864;28;20050;-78
2023/02/04 01:49:07;;;;;;;9.10;6.68;;;8.10;99.90;;;;;;6214375;28;20050;-78
2023/02/04 01:52:19;;;;;;;11.40;7.22;;;8.10;99.90;;;;;;6210170;28;20050;-80
2023/02/04 01:55:27;;;;;;;13.75;8.77;;;8.10;99.90;;;;;;6207972;28;20051;-79
2023/02/04 01:58:32;;;;;;;13.23;7.95;;;8.10;99.90;;;;;;6207862;28;20062;-79
2023/02/04 02:01:40;;;;;;;9.85;7.05;;;8.00;99.90;;;;;;6208039;28;20053;-79
2023/02/04 02:04:42;;;;;;;;;;;8.20;99.90;;;;;;6207965;28;20050;-80
2023/02/04 02:07:44;;;;;;;10.95;6.63;;;8.10;99.90;;;;;;6204203;28;19929;-79
2023/02/04 02:10:52;;;;;;;8.13;6.45;;;8.10;99.90;;;;;;6195064;28;20054;-80
2023/02/04 02:13:54;;;;;;;10.63;8.35;;;8.00;99.90;;;;;;6205050;28;20049;-80
2023/02/04 02:16:56;;;;;;;13.88;7.78;;;8.00;99.90;;;;;;6210928;28;20050;-79
2023/02/04 02:20:01;;;;;;;11.65;8.43;;;8.00;99.90;;;;;;6199990;28;20551;-78
2023/02/04 02:23:15;;;;;;;14.02;8.80;;;8.00;99.90;;;;;;6181982;28;20046;-79
2023/02/04 02:26:25;;;;;;;10.43;7.35;;;8.00;99.90;;;;;;6182246;28;20503;-79
2023/02/04 02:29:28;;;;;;;10.40;6.40;;;8.00;99.90;;;;;;6182342;28;20130;-79
2023/02/04 02:32:29;;;;;;;7.45;6.43;;;8.00;99.90;;;;;;6181399;28;20047;-79
2023/02/04 02:35:31;;;;;;;10.30;7.50;;;8.00;99.90;;;;;;6181536;28;20422;-78
2023/02/04 02:38:33;;;;;;;10.20;7.07;;;8.00;99.90;;;;;;6182064;28;20053;-78
2023/02/04 02:41:36;;;;;;;15.02;7.20;;;8.00;99.90;;;;;;6181318;28;20062;-77
2023/02/04 02:44:38;;;;;;;17.77;8.23;;;8.00;99.90;;;;;;6180765;28;20051;-78
2023/02/04 02:47:39;;;;;;;10.93;7.18;;;7.90;99.90;;;;;;6181744;28;20438;-78
2023/02/04 02:50:42;;;;;;;9.52;7.10;;;8.00;99.90;;;;;;6181178;28;20051;-78
2023/02/04 02:53:49;;;;;;;11.20;7.78;;;7.90;99.90;;;;;;6207528;28;20057;-78
2023/02/04 02:56:53;;;;;;;12.93;7.32;;;7.90;99.90;;;;;;6203368;28;20057;-77
2023/02/04 02:59:55;;;;;;;14.13;6.60;;;7.90;99.90;;;;;;6205771;28;20054;-77
2023/02/04 03:03:02;;;;;;;9.57;6.38;;;7.90;99.90;;;;;;6203853;28;20081;-78
2023/02/04 03:06:08;;;;;;;11.85;7.13;;;7.90;99.90;;;;;;6203376;28;20054;-78
2023/02/04 03:09:10;;;;;;;17.05;7.38;;;8.00;99.90;;;;;;6203193;28;20046;-77
2023/02/04 03:12:13;;;;;;;11.25;6.82;;;8.00;99.90;;;;;;6201470;28;20433;-77
2023/02/04 03:15:15;;;;;;;10.60;6.22;;;8.00;99.90;;;;;;6200630;28;20065;-77
2023/02/04 03:18:20;;;;;;;9.15;5.38;;;8.00;99.90;;;;;;6202204;28;20043;-77
2023/02/04 03:21:21;;;;;;;9.13;6.13;;;8.00;99.90;;;;;;6215268;28;20498;-77
2023/02/04 03:24:24;;;;;;;10.02;7.38;;;8.00;99.90;;;;;;6199074;28;20077;-77
2023/02/04 03:27:28;;;;;;;10.13;7.07;;;8.10;99.90;;;;;;6199014;28;20049;-77
2023/02/04 03:30:29;;;;;;;11.23;8.00;;;8.10;99.90;;;;;;6198612;28;20514;-77
2023/02/04 03:33:31;;;;;;;13.63;7.53;;;8.10;99.90;;;;;;6198827;28;20073;-77
2023/02/04 03:36:33;;;;;;;17.25;6.75;;;8.10;99.90;;;;;;6198379;28;20108;-77
2023/02/04 03:39:34;;;;;;;16.70;9.88;;;8.10;99.90;;;;;;6198568;28;20065;-77
2023/02/04 03:42:38;;;;;;;11.43;7.30;;;8.10;99.90;;;;;;6198649;28;20050;-77
2023/02/04 03:45:39;;;;;;;14.07;7.00;;;8.10;99.90;;;;;;6199358;28;20050;-77
2023/02/04 03:48:41;;;;;;;15.10;7.82;;;8.10;99.90;;;;;;6197670;28;20074;-77
2023/02/04 03:51:43;;;;;;;11.70;6.72;;;8.20;99.90;;;;;;6198341;28;20054;-78
2023/02/04 03:54:44;;;;;;;11.82;7.32;;;8.20;99.90;;;;;;6198559;28;20054;-77
2023/02/04 03:57:47;;;;;;;10.30;6.85;;;8.10;99.90;;;;;;6198753;28;20046;-77
2023/02/04 04:00:49;;;;;;;15.60;6.88;;;8.20;99.90;;;;;;6198364;28;20058;-78
2023/02/04 04:03:51;;;;;;;12.93;6.05;;;8.10;99.90;;;;;;6198881;28;20054;-78
2023/02/04 04:06:52;;;;;;;14.57;6.22;;;8.20;99.90;;;;;;6198472;28;20047;-78
2023/02/04 04:09:54;;;;;;;12.98;6.45;;;8.20;99.90;;;;;;6198393;28;20050;-77
2023/02/04 04:12:57;;;;;;;11.95;5.55;;;8.10;99.90;;;;;;6199030;28;20050;-77
2023/02/04 04:15:58;;;;;;;21.00;6.07;;;8.20;99.90;;;;;;6197780;28;20050;-77
2023/02/04 04:19:00;;;;;;;9.63;4.88;;;8.10;99.90;;;;;;6197181;28;20042;-77
2023/02/04 04:22:02;;;;;;;18.60;5.50;;;8.10;99.90;;;;;;6197628;28;20050;-78
2023/02/04 04:25:04;;;;;;;16.38;5.40;;;8.00;99.90;;;;;;6199300;28;20051;-78
2023/02/04 04:28:07;;;;;;;16.00;5.53;;;7.90;99.90;;;;;;6197528;28;20065;-78
2023/02/04 04:31:08;;;;;;;15.43;5.15;;;7.90;99.90;;;;;;6197969;28;20057;-77
2023/02/04 04:34:10;;;;;;;18.88;8.48;;;7.90;99.90;;;;;;6197491;28;20046;-77
2023/02/04 04:37:12;;;;;;;23.20;6.38;;;7.80;99.90;;;;;;6197669;28;20042;-77
2023/02/04 04:40:14;;;;;;;13.60;5.80;;;7.80;99.90;;;;;;6197217;28;20054;-77
2023/02/04 04:43:17;;;;;;;16.73;6.60;;;7.80;99.90;;;;;;6196849;28;20057;-78
2023/02/04 04:46:19;;;;;;;13.23;6.28;;;7.80;99.90;;;;;;6197532;28;20042;-77
2023/02/04 04:49:21;;;;;;;15.45;6.60;;;7.80;99.90;;;;;;6197778;28;20046;-77
2023/02/04 04:52:22;;;;;;;14.25;6.05;;;7.80;99.90;;;;;;6197494;28;20050;-78
2023/02/04 04:55:24;;;;;;;23.85;7.50;;;7.70;99.90;;;;;;6198487;28;20046;-76
2023/02/04 04:58:27;;;;;;;15.32;7.40;;;7.70;99.90;;;;;;6197032;28;20038;-77
2023/02/04 05:01:29;;;;;;;16.30;7.20;;;7.80;99.90;;;;;;6197111;28;20054;-77
2023/02/04 05:04:30;;;;;;;15.82;7.60;;;7.80;99.90;;;;;;6196877;28;20546;-78
2023/02/04 05:07:32;;;;;;;16.25;7.10;;;7.80;99.90;;;;;;6196584;28;20413;-78
2023/02/04 05:10:34;;;;;;;25.73;8.98;;;7.80;99.90;;;;;;6197231;28;20532;-77
2023/02/04 05:13:37;;;;;;;19.27;6.63;;;7.70;99.90;;;;;;6198213;28;20158;-77
2023/02/04 05:16:38;;;;;;;18.00;8.18;;;7.70;99.90;;;;;;6196903;28;20054;-77
2023/02/04 05:19:40;;;;;;;19.30;7.68;;;7.60;99.90;;;;;;6196324;28;20057;-77
2023/02/04 05:22:42;;;;;;;14.98;9.02;;;7.70;99.90;;;;;;6197014;28;20049;-77
2023/02/04 05:25:43;;;;;;;19.65;7.32;;;7.70;99.90;;;;;;6197264;28;20057;-78
2023/02/04 05:28:46;;;;;;;22.60;8.63;;;7.60;99.90;;;;;;6196415;28;20046;-77
2023/02/04 05:31:48;;;;;;;12.90;5.80;;;7.60;99.90;;;;;;6196705;28;20057;-78
2023/02/04 05:34:50;;;;;;;21.98;7.35;;;7.60;99.90;;;;;;6196734;28;20050;-77
2023/02/04 05:37:52;;;;;;;21.05;7.32;;;7.60;99.90;;;;;;6196325;28;20053;-77
2023/02/04 05:40:53;;;;;;;23.25;8.50;;;7.60;99.90;;;;;;6197996;28;20061;-78
2023/02/04 05:43:56;;;;;;;19.48;7.22;;;7.50;99.90;;;;;;6200973;28;20054;-77
2023/02/04 05:46:58;;;;;;;16.95;7.15;;;7.50;99.90;;;;;;6200675;28;20050;-77
2023/02/04 05:50:00;;;;;;;25.05;6.85;;;7.50;99.90;;;;;;6200712;28;20054;-77
2023/02/04 05:53:01;;;;;;;19.30;6.32;;;7.40;99.90;;;;;;6201520;28;20054;-78
2023/02/04 05:56:03;;;;;;;14.68;6.35;;;7.40;99.90;;;;;;6201707;28;20050;-77
2023/02/04 05:59:06;;;;;;;11.73;6.35;;;7.40;99.90;;;;;;6201645;28;20047;-78
2023/02/04 06:02:08;;;;;;;18.92;6.60;;;7.40;99.90;;;;;;6202291;28;20053;-78
2023/02/04 06:05:09;;;;;;;33.30;10.05;;;7.40;99.90;;;;;;6202565;28;20050;-77
2023/02/04 06:08:11;;;;;;;26.05;8.20;;;7.40;99.90;;;;;;6202220;28;20066;-78
2023/02/04 06:11:13;;;;;;;15.65;7.97;;;7.40;99.90;;;;;;6201789;28;20069;-78
2023/02/04 06:14:16;;;;;;;22.77;8.32;;;7.40;99.90;;;;;;6201723;28;20046;-78
2023/02/04 06:17:17;;;;;;;13.27;6.78;;;7.40;99.90;;;;;;6202698;28;20069;-78
2023/02/04 06:20:19;;;;;;;21.48;7.60;;;7.40;99.90;;;;;;6201610;28;20054;-79
2023/02/04 06:23:21;;;;;;;23.58;7.55;;;7.40;99.90;;;;;;6180168;28;20050;-79
2023/02/04 06:26:22;;;;;;;18.13;7.55;;;7.40;99.90;;;;;;6178609;28;20046;-79
2023/02/04 06:29:25;;;;;;;17.00;8.13;;;7.30;99.90;;;;;;6177896;28;20509;-79
2023/02/04 06:32:27;;;;;;;22.02;7.45;;;7.40;99.90;;;;;;6178486;28;20042;-79
2023/02/04 06:35:29;;;;;;;20.50;6.85;;;7.30;99.90;;;;;;6178618;28;20422;-79
2023/02/04 06:38:31;;;;;;;36.28;9.00;;;7.40;99.90;;;;;;6177679;28;20062;-79
2023/02/04 06:41:33;;;;;;;23.50;8.98;;;7.30;99.90;;;;;;6178690;28;20051;-79
2023/02/04 06:44:36;;;;;;;24.48;8.10;;;7.30;99.90;;;;;;6178087;28;20051;-78
2023/02/04 06:47:37;;;;;;;26.85;8.60;;;7.30;99.90;;;;;;6177330;28;20039;-79
2023/02/04 06:50:39;;;;;;;19.77;9.43;;;7.20;99.90;;;;;;6177849;28;20042;-79
2023/02/04 06:53:42;;;;;;;25.35;7.60;;;7.20;99.90;;;;;;6177840;28;20054;-80
2023/02/04 06:56:45;;;;;;;18.35;7.53;;;7.20;99.90;;;;;;6218673;28;20054;-79
2023/02/04 06:59:48;;;;;;;18.30;7.80;;;7.20;99.90;;;;;;6225959;28;20054;-79
2023/02/04 07:02:50;;;;;;;28.38;9.40;;;7.20;99.90;;;;;;6226377;28;20112;-79
2023/02/04 07:05:52;;;;;;;25.73;7.95;;;7.20;99.90;;;;;;6226331;28;20046;-79
2023/02/04 07:08:54;;;;;;;23.92;8.45;;;7.20;99.90;;;;;;6226314;28;20056;-79
2023/02/04 07:11:56;;;;;;;27.42;8.55;;;7.20;99.90;;;;;;6226138;28;20050;-79
2023/02/04 07:14:59;;;;;;;31.65;7.60;;;7.20;99.90;;;;;;6227244;28;20065;-79
2023/02/04 07:18:00;;;;;;;28.80;8.90;;;7.20;99.90;;;;;;6225006;28;20053;-79
2023/02/04 07:21:02;;;;;;;30.92;8.98;;;7.20;99.90;;;;;;6226065;28;20050;-80
2023/02/04 07:24:04;;;;;;;24.60;8.35;;;7.20;99.90;;;;;;6225083;28;20629;-79
2023/02/04 07:27:06;;;;;;;27.40;8.32;;;7.20;99.90;;;;;;6224754;28;20042;-79
2023/02/04 07:30:11;;;;;;;33.22;12.32;;;7.20;99.90;;;;;;6224704;28;20042;-78
2023/02/04 07:33:13;;;;;;;34.75;12.40;;;7.20;99.90;;;;;;6227042;28;20049;-80
2023/02/04 07:36:14;;;;;;;24.98;10.15;;;7.30;99.90;;;;;;6225386;28;20533;-78
2023/02/04 07:39:16;;;;;;;25.23;9.88;;;7.30;99.90;;;;;;6225488;28;20053;-79
2023/02/04 07:42:18;;;;;;;28.02;11.32;;;7.30;99.90;;;;;;6225793;28;20045;-79
2023/02/04 07:45:21;;;;;;;23.17;10.48;;;7.30;99.90;;;;;;6226082;28;20050;-79
2023/02/04 07:48:22;;;;;;;26.42;9.55;;;7.30;99.90;;;;;;6225404;28;20042;-79
2023/02/04 07:51:24;;;;;;;28.33;10.00;;;7.30;99.90;;;;;;6225636;28;20054;-79
2023/02/04 07:54:26;;;;;;;38.28;10.80;;;7.30;99.90;;;;;;6225410;28;20528;-79
2023/02/04 07:57:28;;;;;;;21.17;8.95;;;7.40;99.90;;;;;;6226163;28;20061;-79
2023/02/04 08:00:31;;;;;;;27.98;9.82;;;7.40;99.90;;;;;;6225689;28;20051;-79
2023/02/04 08:03:33;;;;;;;25.52;9.13;;;7.40;99.90;;;;;;6225885;28;20046;-79
2023/02/04 08:06:35;;;;;;;35.80;9.88;;;7.40;99.90;;;;;;6225469;28;20045;-79
2023/02/04 08:09:36;;;;;;;24.42;10.30;;;7.50;99.90;;;;;;6225278;28;20042;-80
2023/02/04 08:12:44;;;;;;;23.48;9.57;;;7.60;99.90;;;;;;6215422;28;20042;-80
2023/02/04 08:15:47;;;;;;;;;;;7.60;99.90;;;;;;6201108;28;20068;-79
2023/02/04 08:18:55;;;;;;;33.67;11.70;;;7.70;99.90;;;;;;6199837;28;20056;-79
2023/02/04 08:21:57;;;;;;;33.55;14.95;;;7.90;99.90;;;;;;6200896;28;20058;-80
2023/02/04 08:24:59;;;;;;;32.85;13.27;;;8.00;99.90;;;;;;6201057;28;20062;-79
2023/02/04 08:28:01;;;;;;;45.60;14.10;;;8.10;99.90;;;;;;6198440;28;20046;-81
2023/02/04 08:31:05;;;;;;;45.10;20.77;;;8.20;99.90;;;;;;6197643;28;20093;-80
2023/02/04 08:34:09;;;;;;;53.75;21.80;;;8.30;99.90;;;;;;6197742;28;20133;-80
2023/02/04 08:37:14;;;;;;;43.30;21.33;;;8.40;99.90;;;;;;6198078;28;20524;-81
2023/02/04 08:40:17;;;;;;;49.50;25.25;;;8.60;99.90;;;;;;6198094;28;20054;-79
2023/02/04 08:43:22;;;;;;;34.92;16.20;;;8.60;99.90;;;;;;6198928;28;20081;-79
2023/02/04 08:46:29;;;;;;;35.13;15.10;;;8.80;99.90;;;;;;6197939;28;20243;-81
2023/02/04 08:49:31;;;;;;;21.25;11.52;;;8.90;99.90;;;;;;6198799;28;20050;-79
2023/02/04 08:52:33;;;;;;;23.50;8.63;;;9.00;99.90;;;;;;6197687;28;20050;-79
2023/02/04 08:55:35;;;;;;;13.80;7.88;;;9.00;99.90;;;;;;6197264;28;20524;-79
2023/02/04 08:58:38;;;;;;;15.18;8.02;;;9.20;99.90;;;;;;6197127;28;20507;-79
2023/02/04 09:01:47;;;;;;;17.13;6.78;;;9.30;99.90;;;;;;6199481;28;20068;-80
2023/02/04 09:04:50;;;;;;;13.52;7.28;;;9.40;99.90;;;;;;6200628;28;20073;-79
2023/02/04 09:07:54;;;;;;;14.43;6.43;;;9.60;99.90;;;;;;6199586;28;20050;-79
2023/02/04 09:10:55;;;;;;;11.32;6.55;;;9.80;99.90;;;;;;6218896;23;20409;-81
2023/02/04 09:13:57;;;;;;;19.75;8.30;;;10.10;99.90;;;;;;6235240;28;20053;-81
2023/02/04 09:17:00;;;;;;;12.57;6.93;;;10.20;99.90;;;;;;6233642;28;20054;-78
2023/02/04 09:20:02;;;;;;;13.63;5.03;;;10.40;99.90;;;;;;6235972;28;20050;-78
2023/02/04 09:23:05;;;;;;;17.08;5.72;;;10.40;99.90;;;;;;6236505;28;20133;-78
2023/02/04 09:26:07;;;;;;;16.17;6.40;;;10.60;99.90;;;;;;6234374;28;20537;-78
2023/02/04 09:29:09;;;;;;;11.43;4.85;;;10.90;99.90;;;;;;6234496;28;20061;-78
2023/02/04 09:32:12;;;;;;;21.80;6.07;;;11.00;99.90;;;;;;6233205;28;20053;-77
2023/02/04 09:35:13;;;;;;;11.90;5.35;;;11.10;99.90;;;;;;6227120;28;20056;-78
2023/02/04 09:38:15;;;;;;;19.60;7.05;;;11.10;99.90;;;;;;6229736;28;20042;-78
2023/02/04 09:41:18;;;;;;;20.40;7.90;;;11.10;99.90;;;;;;6233722;28;20050;-79
2023/02/04 09:44:22;;;;;;;12.52;4.93;;;11.10;99.90;;;;;;6230155;28;20042;-77
2023/02/04 09:47:26;;;;;;;18.25;5.38;;;11.00;99.90;;;;;;6234178;28;20061;-78
2023/02/04 09:50:30;;;;;;;16.85;6.13;;;11.00;99.90;;;;;;6234396;28;20046;-78
2023/02/04 09:53:33;;;;;;;13.15;6.28;;;10.90;99.90;;;;;;6232987;28;20046;-77
2023/02/04 09:56:34;;;;;;;26.02;5.88;;;10.80;99.90;;;;;;6232393;28;20042;-77
2023/02/04 09:59:37;;;;;;;18.42;7.60;;;10.70;99.90;;;;;;6233277;28;20052;-80
2023/02/04 10:02:42;;;;;;;16.00;5.40;;;10.60;99.90;;;;;;6232341;28;20054;-79
2023/02/04 10:05:46;;;;;;;27.10;6.45;;;10.40;99.90;;;;;;6237066;28;20054;-78
2023/02/04 10:08:50;;;;;;;17.00;6.38;;;10.30;99.90;;;;;;6235014;28;20049;-77
2023/02/04 10:11:52;;;;;;;19.42;7.00;;;10.30;99.90;;;;;;6236990;28;20050;-78
2023/02/04 10:14:53;;;;;;;15.57;7.35;;;10.30;99.90;;;;;;6234781;28;20409;-79
2023/02/04 10:18:11;;;;;;;25.17;6.15;;;10.30;99.90;;;;;;6237367;28;20058;-78
2023/02/04 10:21:16;;;;;;;18.08;7.35;;;10.40;99.90;;;;;;6237414;28;20065;-78
2023/02/04 10:24:21;;;;;;;16.48;5.22;;;10.40;99.90;;;;;;6235731;28;20050;-78
2023/02/04 10:27:28;;;;;;;24.33;6.93;;;10.40;99.90;;;;;;6257306;28;20069;-78
2023/02/04 10:30:34;;;;;;;22.60;5.28;;;10.30;99.90;;;;;;6257800;28;20065;-78
2023/02/04 10:33:38;;;;;;;23.40;5.25;;;10.50;99.90;;;;;;6257540;28;20066;-76
2023/02/04 10:36:41;;;;;;;16.92;4.50;;;10.60;99.90;;;;;;6252875;28;20054;-78
2023/02/04 10:39:44;;;;;;;16.13;5.38;;;10.50;99.90;;;;;;6231703;28;20046;-78
2023/02/04 10:42:52;;;;;;;10.95;5.15;;;10.40;99.90;;;;;;6230170;28;20050;-79
2023/02/04 10:45:57;;;;;;;15.23;4.90;;;10.40;99.90;;;;;;6234161;28;20046;-78
2023/02/04 10:49:00;;;;;;;12.45;5.15;;;10.50;99.90;;;;;;6232093;28;20046;-78
2023/02/04 10:52:13;;;;;;;12.55;4.47;;;10.40;99.90;;;;;;6241262;28;20060;-79
2023/02/04 10:55:24;;;;;;;11.65;4.05;;;10.30;99.90;;;;;;6234695;28;20545;-79
2023/02/04 10:58:34;;;;;;;13.32;4.78;;;10.20;99.90;;;;;;6229557;28;20053;-80
2023/02/04 11:02:14;;;;;;;17.17;5.95;;;10.20;99.90;;;;;;6245197;28;20185;-80
2023/02/04 11:05:27;;;;;;;26.70;6.32;;;10.10;99.90;;;;;;6235611;28;20105;-82
2023/02/04 11:08:42;;;;;;;12.15;4.43;;;10.20;99.90;;;;;;6233942;28;20084;-82
2023/02/04 11:12:01;;;;;;;21.77;4.15;;;10.70;99.90;;;;;;6200953;28;20053;-82
2023/02/04 11:19:06;;;;;;;17.75;4.78;;;11.60;99.90;;;;;;6202389;28;20069;-82
2023/02/04 11:23:05;;;;;;;20.10;4.15;;;12.20;99.90;;;;;;6216045;28;20527;-79
2023/02/04 11:30:19;;;;;;;13.18;4.93;;;13.00;99.90;;;;;;6238177;28;20749;-79
2023/02/04 11:34:03;;;;;;;18.65;4.35;;;13.10;99.90;;;;;;6270738;28;20151;-80
2023/02/04 11:37:38;;;;;;;15.50;5.35;;;12.80;99.90;;;;;;6234861;28;20042;-80
2023/02/04 11:40:41;;;;;;;20.42;4.32;;;12.50;99.90;;;;;;6232814;28;20050;-80
2023/02/04 11:43:59;;;;;;;11.27;4.72;;;12.30;99.90;;;;;;6239152;28;20452;-80
2023/02/04 11:47:11;;;;;;;12.45;4.32;;;12.10;99.90;;;;;;6235492;28;20054;-81
2023/02/04 11:50:18;;;;;;;16.30;4.55;;;12.00;99.90;;;;;;6237288;28;20417;-80
2023/02/04 11:53:24;;;;;;;13.73;4.05;;;11.70;99.90;;;;;;6232243;28;20054;-80
2023/02/04 11:56:30;;;;;;;15.80;3.75;;;11.50;99.90;;;;;;6228736;28;20521;-80
2023/02/04 11:59:33;;;;;;;14.30;3.75;;;11.60;99.90;;;;;;6232264;28;20045;-80
2023/02/04 12:02:46;;;;;;;24.45;5.30;;;11.90;99.90;;;;;;6231574;28;20065;-80
2023/02/04 12:06:00;;;;;;;12.57;5.65;;;12.20;99.90;;;;;;6229359;28;20050;-81
2023/02/04 12:09:08;;;;;;;19.10;4.70;;;12.80;99.90;;;;;;6226274;28;20049;-81
2023/02/04 12:12:09;;;;;;;24.27;7.70;;;13.40;99.90;;;;;;6228679;28;20181;-80
2023/02/04 12:15:17;;;;;;;11.43;3.20;;;14.00;99.90;;;;;;6230313;28;20052;-80
2023/02/04 12:18:19;;;;;;;10.88;3.95;;;14.70;99.90;;;;;;6228643;28;20120;-79
2023/02/04 12:21:25;;;;;;;9.07;3.35;;;15.30;99.90;;;;;;6226029;28;20046;-78
2023/02/04 12:24:35;;;;;;;12.93;4.13;;;15.50;99.90;;;;;;6225917;28;20664;-80
2023/02/04 12:27:37;;;;;;;9.85;3.08;;;16.00;99.90;;;;;;6236633;28;20049;-80
2023/02/04 12:30:39;;;;;;;9.75;2.60;;;16.30;99.90;;;;;;6250133;28;20049;-79
2023/02/04 12:33:41;;;;;;;11.40;2.75;;;16.30;99.90;;;;;;6251221;28;20049;-80
2023/02/04 12:36:43;;;;;;;11.55;2.97;;;16.10;99.90;;;;;;6245401;28;20056;-80
2023/02/04 12:39:46;;;;;;;12.73;4.22;;;15.70;99.90;;;;;;6224369;28;20096;-79
2023/02/04 12:42:48;;;;;;;8.80;2.90;;;15.20;99.90;;;;;;6225330;28;20061;-78
2023/02/04 12:45:50;;;;;;;11.38;3.38;;;14.60;99.90;;;;;;6227491;28;20058;-78
2023/02/04 12:48:52;;;;;;;10.75;4.30;;;14.30;99.90;;;;;;6227517;28;20049;-78
2023/02/04 12:51:57;;;;;;;8.38;2.95;;;14.20;99.90;;;;;;6226622;28;20065;-79
2023/02/04 12:55:00;;;;;;;6.22;2.70;;;14.40;99.90;;;;;;6229324;28;20045;-79
2023/02/04 12:58:02;;;;;;;10.70;2.42;;;14.60;99.90;;;;;;6227491;28;20054;-79
2023/02/04 13:01:03;;;;;;;8.93;2.88;;;15.30;99.90;;;;;;6229641;28;20485;-79
2023/02/04 13:04:05;;;;;;;15.60;3.25;;;16.00;99.90;;;;;;6227915;28;20054;-79
2023/02/04 13:07:07;;;;;;;16.30;4.75;;;16.60;99.90;;;;;;6226447;28;20049;-79
2023/02/04 13:10:10;;;;;;;9.45;3.30;;;17.30;99.90;;;;;;6227888;28;20053;-79
2023/02/04 13:13:12;;;;;;;17.30;4.63;;;17.70;99.90;;;;;;6228146;28;20061;-80
2023/02/04 13:16:14;;;;;;;8.25;3.05;;;17.50;99.90;;;;;;6228568;28;20049;-78
2023/02/04 13:19:15;;;;;;;8.48;2.95;;;17.10;99.90;;;;;;6226547;28;20049;-80
2023/02/04 13:22:17;;;;;;;9.45;3.30;;;16.70;99.90;;;;;;6228750;28;20046;-80
2023/02/04 13:25:20;;;;;;;7.03;2.90;;;16.40;99.90;;;;;;6226797;28;20061;-79
2023/02/04 13:28:22;;;;;;;10.88;3.08;;;16.40;99.90;;;;;;6235310;28;20056;-79
2023/02/04 13:31:23;;;;;;;9.65;2.88;;;16.20;99.90;;;;;;6224978;28;20058;-79
2023/02/04 13:34:25;;;;;;;7.55;4.55;;;16.10;99.90;;;;;;6225827;28;20046;-79
2023/02/04 13:37:27;;;;;;;12.85;2.92;;;15.80;99.90;;;;;;6227158;28;20046;-79
2023/02/04 13:40:30;;;;;;;10.75;2.47;;;15.40;99.90;;;;;;6227018;28;20059;-79
2023/02/04 13:43:31;;;;;;;7.90;2.78;;;15.40;99.90;;;;;;6227017;28;20053;-79
2023/02/04 13:46:33;;;;;;;6.10;1.95;;;15.40;99.90;;;;;;6227775;28;20057;-79
2023/02/04 13:49:35;;;;;;;4.05;1.80;;;15.30;99.90;;;;;;6227331;28;20042;-79
2023/02/04 13:52:37;;;;;;;7.72;1.55;;;15.80;99.90;;;;;;6227454;28;20493;-79
2023/02/04 13:55:40;;;;;;;5.82;2.00;;;16.70;99.90;;;;;;6228345;28;20057;-79
2023/02/04 13:58:42;;;;;;;13.27;3.28;;;17.50;99.90;;;;;;6226728;28;20593;-79
2023/02/04 14:01:44;;;;;;;6.15;2.00;;;18.20;99.90;;;;;;6227295;28;20046;-79
2023/02/04 14:04:46;;;;;;;7.05;1.88;;;18.60;99.90;;;;;;6230249;28;20517;-80
2023/02/04 14:07:47;;;;;;;9.10;2.47;;;18.60;99.90;;;;;;6229817;28;20540;-81
2023/02/04 14:10:50;;;;;;;6.40;2.33;;;18.40;99.90;;;;;;6231926;28;20052;-81
2023/02/04 14:14:07;;;;;;;6.15;2.30;;;17.90;99.90;;;;;;6227121;28;20050;-81
2023/02/04 14:17:11;;;;;;;8.60;2.72;;;17.20;99.90;;;;;;6208219;28;20052;-79
2023/02/04 14:20:13;;;;;;;4.47;2.20;;;16.60;99.90;;;;;;6208544;28;20070;-79
2023/02/04 14:23:15;;;;;;;8.95;2.67;;;15.90;99.90;;;;;;6226345;28;20501;-80
2023/02/04 14:26:18;;;;;;;6.57;1.95;;;15.40;99.90;;;;;;6232455;28;20052;-80
2023/02/04 14:29:20;;;;;;;9.45;3.30;;;14.90;99.90;;;;;;6248097;28;20493;-79
2023/02/04 14:32:22;;;;;;;8.95;2.95;;;14.30;99.90;;;;;;6257903;28;20057;-80
2023/02/04 14:35:23;;;;;;;9.55;2.40;;;13.80;99.90;;;;;;6258177;28;20049;-79
2023/02/04 14:38:29;;;;;;;6.50;2.85;;;13.40;99.90;;;;;;6240480;28;20046;-80
2023/02/04 14:41:32;;;;;;;19.42;4.18;;;13.00;99.90;;;;;;6210712;28;20054;-79
2023/02/04 14:44:34;;;;;;;6.03;3.20;;;12.60;99.90;;;;;;6213220;28;20054;-82
2023/02/04 14:47:36;;;;;;;8.77;4.57;;;12.30;99.90;;;;;;6231995;28;20050;-80
2023/02/04 14:50:38;;;;;;;10.30;3.88;;;12.00;99.90;;;;;;6233375;28;20046;-80
2023/02/04 14:53:40;;;;;;;13.60;4.03;;;11.80;99.90;;;;;;6231580;28;20058;-79
2023/02/04 14:56:46;;;;;;;9.57;3.50;;;11.60;99.90;;;;;;6229117;28;20046;-79
2023/02/04 14:59:48;;;;;;;13.90;3.80;;;11.40;99.90;;;;;;6228106;28;20471;-79
2023/02/04 15:02:50;;;;;;;11.25;3.10;;;11.20;99.90;;;;;;6228108;28;20049;-79
2023/02/04 15:05:51;;;;;;;10.95;2.80;;;11.00;99.90;;;;;;6233750;28;20072;-79
2023/02/04 15:08:53;;;;;;;14.23;3.50;;;11.50;99.90;;;;;;6237749;28;20046;-79
2023/02/04 15:11:56;;;;;;;7.95;3.53;;;12.00;99.90;;;;;;6229736;28;20056;-81
2023/02/04 15:14:58;;;;;;;6.43;3.25;;;12.50;99.90;;;;;;6232491;28;20497;-79
2023/02/04 15:17:59;;;;;;;11.98;3.58;;;12.90;99.90;;;;;;6228400;28;20061;-79
2023/02/04 15:21:01;;;;;;;15.52;3.70;;;13.40;99.90;;;;;;6228187;28;20046;-80
2023/02/04 15:24:03;;;;;;;13.15;3.55;;;13.90;99.90;;;;;;6228251;28;20052;-80
2023/02/04 15:27:06;;;;;;;13.05;3.80;;;14.10;99.90;;;;;;6228449;28;20053;-79
2023/02/04 15:30:09;;;;;;;10.77;2.88;;;14.20;99.90;;;;;;6236641;28;20053;-80
2023/02/04 15:33:12;;;;;;;5.45;2.72;;;14.10;99.90;;;;;;6229630;28;20050;-80
2023/02/04 15:36:14;;;;;;;8.27;3.53;;;13.70;99.90;;;;;;6230176;28;20046;-81
2023/02/04 15:39:16;;;;;;;8.52;3.60;;;13.30;99.90;;;;;;6230058;28;20038;-80
2023/02/04 15:42:19;;;;;;;9.27;4.20;;;13.00;99.90;;;;;;6227431;28;20042;-80
2023/02/04 15:45:21;;;;;;;11.00;2.90;;;12.70;99.90;;;;;;6228281;28;20050;-80
2023/02/04 15:48:23;;;;;;;14.55;3.67;;;12.30;99.90;;;;;;6227118;28;20045;-80
2023/02/04 15:51:25;;;;;;;15.38;3.33;;;12.00;99.90;;;;;;6230024;28;20049;-80
2023/02/04 15:54:28;;;;;;;11.65;2.50;;;11.60;99.90;;;;;;6230190;28;20042;-79
2023/02/04 15:57:31;;;;;;;12.23;3.83;;;11.30;99.90;;;;;;6229902;28;20192;-80
2023/02/04 16:00:37;;;;;;;9.40;2.60;;;10.90;99.90;;;;;;6228325;28;20046;-79
2023/02/04 16:03:40;;;;;;;8.80;4.25;;;10.60;99.90;;;;;;6228301;28;20050;-79